Seabulk Trader — KNJK — position and weather

sailwx.info

Track history (hours):
 
Tides and Currents Weather Stations Pressure Air Temp Water Temp Dewpoint Dewpoint Depression Visibility Wind Speed Wind Dir Waves Ship Positions

Seabulk Trader

Owner: Seabulk Tankers Inc, Fort Lauderdale, FL. More information available from US FCC via Universal Licensing System and Coast Guard Vessel Documentation Center.

Last reported at 2017-Sep-23 23:22 UTC. Time now 2017-Sep-24 19:24 UTC.
Position N 27°36' W 082°44'.

Type: Tanker. MMSI: 303105000.

Date/timePositionNaut miles runAvg speedWind from/ knotsBaromVisibWave heightAir tempDewpointWater temp
2017-Sep-23 23:22N 27°36' W 082°44'615.0
2017-Sep-23 22:59N 27°38' W 082°37'714.4
2017-Sep-23 22:31N 27°43' W 082°32'612.6
2017-Sep-23 22:00N 27°48' W 082°28'612.3
2017-Sep-23 21:30N 27°54' W 082°26'2 4.6
2017-Sep-23 20:59N 27°57' W 082°27'1 1.2
2017-Sep-23 20:30N 27°56' W 082°27'0 0.0
2017-Sep-23 19:57N 27°56' W 082°27'1 0.0
2017-Sep-22 01:58N 27°55' W 082°27'0 0.0
2017-Sep-22 01:28N 27°55' W 082°27'0 0.0
2017-Sep-22 00:58N 27°55' W 082°27'0 0.0
2017-Sep-22 00:25N 27°55' W 082°27'0 0.0
2017-Sep-21 23:58N 27°55' W 082°27'0 0.0
2017-Sep-21 23:28N 27°55' W 082°27'0 0.0
2017-Sep-21 22:58N 27°55' W 082°27'1 1.2
2017-Sep-21 22:30N 27°55' W 082°26'4 7.7
2017-Sep-21 22:00N 27°51' W 082°27'4 9.0
2017-Sep-21 21:31N 27°47' W 082°30'5 8.9
2017-Sep-21 21:00N 27°43' W 082°32'  
2017-Sep-19 13:53N 29°37' W 093°19'510.7
2017-Sep-19 13:23N 29°42' W 093°20'411.0
2017-Sep-19 13:01N 29°46' W 093°21'5 9.5
2017-Sep-19 12:31N 29°51' W 093°21'4 8.3
2017-Sep-19 12:01N 29°55' W 093°20'4 8.4
2017-Sep-19 11:31N 29°59' W 093°20'3 6.1
2017-Sep-19 11:01N 30°02' W 093°20'4 7.1
2017-Sep-19 10:31N 30°06' W 093°20'3 5.9
2017-Sep-19 10:01N 30°09' W 093°20'2 3.7
2017-Sep-19 09:30N 30°10' W 093°19'0 0.6
2017-Sep-19 08:58N 30°11' W 093°19'0 0.0
2017-Sep-19 08:28N 30°11' W 093°19'0 0.0
2017-Sep-19 07:58N 30°11' W 093°19'0 0.0
2017-Sep-19 07:28N 30°11' W 093°19'0 0.0
2017-Sep-19 06:58N 30°11' W 093°19'0 0.0
2017-Sep-19 06:25N 30°11' W 093°19'0 0.0
2017-Sep-19 05:58N 30°11' W 093°19'0 0.0
2017-Sep-19 05:28N 30°11' W 093°19'0 0.0
2017-Sep-19 04:58N 30°11' W 093°19'0 0.0
2017-Sep-19 04:28N 30°11' W 093°19'0 0.0
2017-Sep-19 03:58N 30°11' W 093°19'0 0.0
2017-Sep-19 03:28N 30°11' W 093°19'0 0.0
2017-Sep-19 02:58N 30°11' W 093°19'0 0.0
2017-Sep-19 02:28N 30°11' W 093°19'0 0.0
2017-Sep-19 01:58N 30°11' W 093°19'0 0.0
2017-Sep-19 01:28N 30°11' W 093°19'0 0.0
2017-Sep-19 00:58N 30°11' W 093°19'0 0.0
2017-Sep-19 00:28N 30°11' W 093°19'0 0.0
2017-Sep-18 23:55N 30°11' W 093°19'0 0.0
2017-Sep-18 23:28N 30°11' W 093°19'0 0.0
2017-Sep-18 22:58N 30°11' W 093°19'0 0.0
2017-Sep-18 22:25N 30°11' W 093°19'0 0.0
2017-Sep-18 21:58N 30°11' W 093°19'0 0.0
2017-Sep-18 21:28N 30°11' W 093°19'0 0.0
2017-Sep-18 20:58N 30°11' W 093°19'0 0.0
2017-Sep-18 20:28N 30°11' W 093°19'0 0.0
2017-Sep-18 19:58N 30°11' W 093°19'0 0.0
2017-Sep-18 19:28N 30°11' W 093°19'0 0.0
2017-Sep-18 18:58N 30°11' W 093°19'0 0.0
2017-Sep-18 18:28N 30°11' W 093°19'0 0.0
2017-Sep-18 17:58N 30°11' W 093°19'0 0.0
2017-Sep-18 17:28N 30°11' W 093°19'0 0.0
2017-Sep-18 16:58N 30°11' W 093°19'0 0.0
2017-Sep-18 16:28N 30°11' W 093°19'0 0.0
2017-Sep-18 15:55N 30°11' W 093°19'0 0.0
2017-Sep-18 15:28N 30°11' W 093°19'0 0.0
2017-Sep-18 14:58N 30°11' W 093°19'0 0.0
2017-Sep-18 14:28N 30°11' W 093°19'0 0.0
2017-Sep-18 13:58N 30°11' W 093°19'0 0.0
2017-Sep-18 13:28N 30°11' W 093°19'0 0.0
2017-Sep-18 12:58N 30°11' W 093°19'0 0.0
2017-Sep-18 12:28N 30°11' W 093°19'0 0.0
2017-Sep-18 11:55N 30°11' W 093°19'0 0.0
2017-Sep-18 11:28N 30°11' W 093°19'0 0.0
2017-Sep-18 10:58N 30°11' W 093°19'0 0.0
2017-Sep-18 10:28N 30°11' W 093°19'0 0.0
2017-Sep-18 09:58N 30°11' W 093°19'0 0.0
2017-Sep-18 09:28N 30°11' W 093°19'0 0.0
2017-Sep-18 08:58N 30°11' W 093°19'0 0.0
2017-Sep-18 08:28N 30°11' W 093°19'0 0.0
2017-Sep-18 07:58N 30°11' W 093°19'0 0.0
2017-Sep-18 07:28N 30°11' W 093°19'0 0.0
2017-Sep-18 06:58N 30°11' W 093°19'0 0.0
2017-Sep-18 06:28N 30°11' W 093°19'0 0.0
2017-Sep-18 05:58N 30°11' W 093°19'0 0.0
2017-Sep-18 05:28N 30°11' W 093°19'0 0.0
2017-Sep-18 04:58N 30°11' W 093°19'0 0.0
2017-Sep-18 04:28N 30°11' W 093°19'0 0.0
2017-Sep-18 03:58N 30°11' W 093°19'0 0.0
2017-Sep-18 03:28N 30°11' W 093°19'0 0.0
2017-Sep-18 02:58N 30°11' W 093°19'0 0.0
2017-Sep-18 02:28N 30°11' W 093°19'0 0.0
2017-Sep-18 01:58N 30°11' W 093°19'0 0.0
2017-Sep-18 01:28N 30°11' W 093°19'0 0.0
2017-Sep-18 00:58N 30°11' W 093°19'0 0.0
2017-Sep-18 00:28N 30°11' W 093°19'0 0.0
2017-Sep-17 23:58N 30°11' W 093°19'0 0.0
2017-Sep-17 23:31N 30°11' W 093°19'0 0.0
2017-Sep-17 23:01N 30°11' W 093°19'0 0.5
2017-Sep-17 22:30N 30°11' W 093°19'0 0.5
2017-Sep-17 22:00N 30°11' W 093°18'0 0.0
2017-Sep-17 21:30N 30°11' W 093°18'0 0.1
2017-Sep-17 20:57N 30°11' W 093°18'0 0.0
2017-Sep-17 20:30N 30°11' W 093°18'0 0.0
2017-Sep-17 20:00N 30°11' W 093°18'0 0.0
2017-Sep-17 19:30N 30°11' W 093°18'0 0.0
2017-Sep-17 19:00N 30°11' W 093°18'0 0.1
2017-Sep-17 18:30N 30°11' W 093°18'0 0.0
2017-Sep-17 18:00N 30°11' W 093°18'0 0.0
2017-Sep-17 17:30N 30°11' W 093°18'0 0.0
2017-Sep-17 17:00N 30°11' W 093°18'0 0.0
2017-Sep-17 16:30N 30°11' W 093°18'0 0.0
2017-Sep-17 16:00N 30°11' W 093°18'0 0.0
2017-Sep-17 15:30N 30°11' W 093°19'0 0.0
2017-Sep-17 15:00N 30°11' W 093°19'0 0.0
2017-Sep-17 14:27N 30°11' W 093°19'0 0.0
2017-Sep-17 14:00N 30°11' W 093°19'0 0.0
2017-Sep-17 13:30N 30°11' W 093°19'0 0.0
2017-Sep-17 13:00N 30°11' W 093°19'0 0.0
2017-Sep-17 12:30N 30°11' W 093°18'0 0.0
2017-Sep-17 12:00N 30°11' W 093°18'0 0.0
2017-Sep-17 11:30N 30°11' W 093°18'0 0.0
2017-Sep-17 11:00N 30°11' W 093°18'0 0.0
2017-Sep-17 10:30N 30°11' W 093°18'0 0.1
2017-Sep-17 10:01N 30°11' W 093°18'2 3.6
2017-Sep-17 09:31N 30°09' W 093°20'4 7.0
2017-Sep-17 09:00N 30°06' W 093°20'5 9.1
2017-Sep-17 08:31N 30°01' W 093°20'4 8.3
2017-Sep-17 08:00N 29°57' W 093°20'5 9.9
2017-Sep-17 07:31N 29°52' W 093°21'611.8
2017-Sep-17 07:00N 29°46' W 093°21'911.5
2017-Sep-17 06:13N 29°37' W 093°19'610.0
2017-Sep-17 05:37N 29°33' W 093°15'57112.3
2017-Sep-15 07:16N 27°38' W 082°38'413.5
2017-Sep-15 06:59N 27°41' W 082°35'712.7
2017-Sep-15 06:28N 27°47' W 082°31'512.0
2017-Sep-15 06:01N 27°50' W 082°27'510.3
2017-Sep-15 05:30N 27°55' W 082°27'1 2.1
2017-Sep-15 05:01N 27°56' W 082°27'0 0.9
2017-Sep-15 04:29N 27°56' W 082°27'0 0.0
2017-Sep-15 03:53N 27°56' W 082°27'0 0.0
2017-Sep-15 03:08N 27°56' W 082°27'0 0.0
2017-Sep-15 02:56N 27°56' W 082°27'0 0.0
2017-Sep-15 02:29N 27°56' W 082°27'0 0.0
2017-Sep-15 01:56N 27°56' W 082°27'0 0.0
2017-Sep-15 01:29N 27°56' W 082°27'0 0.0
2017-Sep-15 00:59N 27°56' W 082°27'0 0.0
2017-Sep-15 00:29N 27°56' W 082°27'0 0.0
2017-Sep-14 23:56N 27°56' W 082°27'0 0.0
2017-Sep-14 23:29N 27°56' W 082°27'0 0.0
2017-Sep-14 22:56N 27°56' W 082°27'0 0.0
2017-Sep-14 22:29N 27°56' W 082°27'0 0.0
2017-Sep-14 21:59N 27°56' W 082°27'0 0.0
2017-Sep-14 21:23N 27°56' W 082°27'0 0.0
2017-Sep-14 20:59N 27°56' W 082°27'0 0.0
2017-Sep-14 20:29N 27°56' W 082°27'0 0.0
2017-Sep-14 19:59N 27°56' W 082°27'0 0.0
2017-Sep-14 19:29N 27°56' W 082°27'0 0.0
2017-Sep-14 18:56N 27°56' W 082°27'0 0.0
2017-Sep-14 18:26N 27°56' W 082°27'0 0.0
2017-Sep-14 17:59N 27°56' W 082°27'0 0.0
2017-Sep-14 17:23N 27°56' W 082°27'0 0.0
2017-Sep-14 16:59N 27°56' W 082°27'0 0.0
2017-Sep-14 16:29N 27°56' W 082°27'0 0.0
2017-Sep-14 15:59N 27°56' W 082°27'0 0.0
2017-Sep-14 15:26N 27°56' W 082°27'0 0.0
2017-Sep-14 14:59N 27°56' W 082°27'0 0.0
2017-Sep-14 14:29N 27°56' W 082°27'0 0.0
2017-Sep-14 13:59N 27°56' W 082°27'0 0.0
2017-Sep-14 13:29N 27°56' W 082°27'0 0.0
2017-Sep-14 12:59N 27°56' W 082°27'0 0.0
2017-Sep-14 12:29N 27°56' W 082°27'0 0.0
2017-Sep-14 11:59N 27°56' W 082°27'0 0.0
2017-Sep-14 11:29N 27°56' W 082°27'0 0.0
2017-Sep-14 10:59N 27°56' W 082°27'0 0.0
2017-Sep-14 10:29N 27°56' W 082°27'0 0.0
2017-Sep-14 09:59N 27°56' W 082°27'0 0.0
2017-Sep-14 09:30N 27°56' W 082°27'0 0.0
2017-Sep-14 09:00N 27°56' W 082°27'0 0.0
2017-Sep-14 08:30N 27°56' W 082°27'0 0.0
2017-Sep-14 08:00N 27°56' W 082°27'0 0.0
2017-Sep-14 07:30N 27°56' W 082°27'0 0.0
2017-Sep-14 07:00N 27°56' W 082°27'0 0.0
2017-Sep-14 06:30N 27°56' W 082°27'0 0.0
2017-Sep-14 06:00N 27°56' W 082°27'0 0.0
2017-Sep-14 05:30N 27°56' W 082°27'0 0.0
2017-Sep-14 05:00N 27°56' W 082°27'0 0.0
2017-Sep-14 04:30N 27°56' W 082°27'0 0.0
2017-Sep-14 04:00N 27°56' W 082°27'0 0.0
2017-Sep-14 03:30N 27°56' W 082°27'0 0.0
2017-Sep-14 03:00N 27°56' W 082°27'0 0.0
2017-Sep-14 02:30N 27°56' W 082°27'0 0.0
2017-Sep-14 02:00N 27°56' W 082°27'0 0.0
2017-Sep-14 01:30N 27°56' W 082°27'0 0.0
2017-Sep-14 01:00N 27°56' W 082°27'0 0.0
2017-Sep-14 00:30N 27°56' W 082°27'0 0.0
2017-Sep-14 00:00N 27°56' W 082°27'0 0.0
2017-Sep-13 23:30N 27°56' W 082°27'  
Track history (hours):
 
Tides and Currents Weather Stations Pressure Air Temp Water Temp Dewpoint Dewpoint Depression Visibility Wind Speed Wind Dir Waves Ship Positions

Seabulk Trader

Owner: Seabulk Tankers Inc, Fort Lauderdale, FL. More information available from US FCC via Universal Licensing System and Coast Guard Vessel Documentation Center.

Last reported at 2017-Sep-23 23:22 UTC. Time now 2017-Sep-24 19:24 UTC.
Position N 27°36' W 082°44'.

Type: Tanker. MMSI: 303105000.

Date/timePositionNaut miles runAvg speedWind from/ knotsBaromVisibWave heightAir tempDewpointWater temp
2017-Sep-23 23:22N 27°36' W 082°44'615.0
2017-Sep-23 22:59N 27°38' W 082°37'714.4
2017-Sep-23 22:31N 27°43' W 082°32'612.6
2017-Sep-23 22:00N 27°48' W 082°28'612.3
2017-Sep-23 21:30N 27°54' W 082°26'2 4.6
2017-Sep-23 20:59N 27°57' W 082°27'1 1.2
2017-Sep-23 20:30N 27°56' W 082°27'0 0.0
2017-Sep-23 19:57N 27°56' W 082°27'1 0.0
2017-Sep-22 01:58N 27°55' W 082°27'0 0.0
2017-Sep-22 01:28N 27°55' W 082°27'0 0.0
2017-Sep-22 00:58N 27°55' W 082°27'0 0.0
2017-Sep-22 00:25N 27°55' W 082°27'0 0.0
2017-Sep-21 23:58N 27°55' W 082°27'0 0.0
2017-Sep-21 23:28N 27°55' W 082°27'0 0.0
2017-Sep-21 22:58N 27°55' W 082°27'1 1.2
2017-Sep-21 22:30N 27°55' W 082°26'4 7.7
2017-Sep-21 22:00N 27°51' W 082°27'4 9.0
2017-Sep-21 21:31N 27°47' W 082°30'5 8.9
2017-Sep-21 21:00N 27°43' W 082°32'  
2017-Sep-19 13:53N 29°37' W 093°19'510.7
2017-Sep-19 13:23N 29°42' W 093°20'411.0
2017-Sep-19 13:01N 29°46' W 093°21'5 9.5
2017-Sep-19 12:31N 29°51' W 093°21'4 8.3
2017-Sep-19 12:01N 29°55' W 093°20'4 8.4
2017-Sep-19 11:31N 29°59' W 093°20'3 6.1
2017-Sep-19 11:01N 30°02' W 093°20'4 7.1
2017-Sep-19 10:31N 30°06' W 093°20'3 5.9
2017-Sep-19 10:01N 30°09' W 093°20'2 3.7
2017-Sep-19 09:30N 30°10' W 093°19'0 0.6
2017-Sep-19 08:58N 30°11' W 093°19'0 0.0
2017-Sep-19 08:28N 30°11' W 093°19'0 0.0
2017-Sep-19 07:58N 30°11' W 093°19'0 0.0
2017-Sep-19 07:28N 30°11' W 093°19'0 0.0
2017-Sep-19 06:58N 30°11' W 093°19'0 0.0
2017-Sep-19 06:25N 30°11' W 093°19'0 0.0
2017-Sep-19 05:58N 30°11' W 093°19'0 0.0
2017-Sep-19 05:28N 30°11' W 093°19'0 0.0
2017-Sep-19 04:58N 30°11' W 093°19'0 0.0
2017-Sep-19 04:28N 30°11' W 093°19'0 0.0
2017-Sep-19 03:58N 30°11' W 093°19'0 0.0
2017-Sep-19 03:28N 30°11' W 093°19'0 0.0
2017-Sep-19 02:58N 30°11' W 093°19'0 0.0
2017-Sep-19 02:28N 30°11' W 093°19'0 0.0
2017-Sep-19 01:58N 30°11' W 093°19'0 0.0
2017-Sep-19 01:28N 30°11' W 093°19'0 0.0
2017-Sep-19 00:58N 30°11' W 093°19'0 0.0
2017-Sep-19 00:28N 30°11' W 093°19'0 0.0
2017-Sep-18 23:55N 30°11' W 093°19'0 0.0
2017-Sep-18 23:28N 30°11' W 093°19'0 0.0
2017-Sep-18 22:58N 30°11' W 093°19'0 0.0
2017-Sep-18 22:25N 30°11' W 093°19'0 0.0
2017-Sep-18 21:58N 30°11' W 093°19'0 0.0
2017-Sep-18 21:28N 30°11' W 093°19'0 0.0
2017-Sep-18 20:58N 30°11' W 093°19'0 0.0
2017-Sep-18 20:28N 30°11' W 093°19'0 0.0
2017-Sep-18 19:58N 30°11' W 093°19'0 0.0
2017-Sep-18 19:28N 30°11' W 093°19'0 0.0
2017-Sep-18 18:58N 30°11' W 093°19'0 0.0
2017-Sep-18 18:28N 30°11' W 093°19'0 0.0
2017-Sep-18 17:58N 30°11' W 093°19'0 0.0
2017-Sep-18 17:28N 30°11' W 093°19'0 0.0
2017-Sep-18 16:58N 30°11' W 093°19'0 0.0
2017-Sep-18 16:28N 30°11' W 093°19'0 0.0
2017-Sep-18 15:55N 30°11' W 093°19'0 0.0
2017-Sep-18 15:28N 30°11' W 093°19'0 0.0
2017-Sep-18 14:58N 30°11' W 093°19'0 0.0
2017-Sep-18 14:28N 30°11' W 093°19'0 0.0
2017-Sep-18 13:58N 30°11' W 093°19'0 0.0
2017-Sep-18 13:28N 30°11' W 093°19'0 0.0
2017-Sep-18 12:58N 30°11' W 093°19'0 0.0
2017-Sep-18 12:28N 30°11' W 093°19'0 0.0
2017-Sep-18 11:55N 30°11' W 093°19'0 0.0
2017-Sep-18 11:28N 30°11' W 093°19'0 0.0
2017-Sep-18 10:58N 30°11' W 093°19'0 0.0
2017-Sep-18 10:28N 30°11' W 093°19'0 0.0
2017-Sep-18 09:58N 30°11' W 093°19'0 0.0
2017-Sep-18 09:28N 30°11' W 093°19'0 0.0
2017-Sep-18 08:58N 30°11' W 093°19'0 0.0
2017-Sep-18 08:28N 30°11' W 093°19'0 0.0
2017-Sep-18 07:58N 30°11' W 093°19'0 0.0
2017-Sep-18 07:28N 30°11' W 093°19'0 0.0
2017-Sep-18 06:58N 30°11' W 093°19'0 0.0
2017-Sep-18 06:28N 30°11' W 093°19'0 0.0
2017-Sep-18 05:58N 30°11' W 093°19'0 0.0
2017-Sep-18 05:28N 30°11' W 093°19'0 0.0
2017-Sep-18 04:58N 30°11' W 093°19'0 0.0
2017-Sep-18 04:28N 30°11' W 093°19'0 0.0
2017-Sep-18 03:58N 30°11' W 093°19'0 0.0
2017-Sep-18 03:28N 30°11' W 093°19'0 0.0
2017-Sep-18 02:58N 30°11' W 093°19'0 0.0
2017-Sep-18 02:28N 30°11' W 093°19'0 0.0
2017-Sep-18 01:58N 30°11' W 093°19'0 0.0
2017-Sep-18 01:28N 30°11' W 093°19'0 0.0
2017-Sep-18 00:58N 30°11' W 093°19'0 0.0
2017-Sep-18 00:28N 30°11' W 093°19'0 0.0
2017-Sep-17 23:58N 30°11' W 093°19'0 0.0
2017-Sep-17 23:31N 30°11' W 093°19'0 0.0
2017-Sep-17 23:01N 30°11' W 093°19'0 0.5
2017-Sep-17 22:30N 30°11' W 093°19'0 0.5
2017-Sep-17 22:00N 30°11' W 093°18'0 0.0
2017-Sep-17 21:30N 30°11' W 093°18'0 0.1
2017-Sep-17 20:57N 30°11' W 093°18'0 0.0
2017-Sep-17 20:30N 30°11' W 093°18'0 0.0
2017-Sep-17 20:00N 30°11' W 093°18'0 0.0
2017-Sep-17 19:30N 30°11' W 093°18'0 0.0
2017-Sep-17 19:00N 30°11' W 093°18'0 0.1
2017-Sep-17 18:30N 30°11' W 093°18'0 0.0
2017-Sep-17 18:00N 30°11' W 093°18'0 0.0
2017-Sep-17 17:30N 30°11' W 093°18'0 0.0
2017-Sep-17 17:00N 30°11' W 093°18'0 0.0
2017-Sep-17 16:30N 30°11' W 093°18'0 0.0
2017-Sep-17 16:00N 30°11' W 093°18'0 0.0
2017-Sep-17 15:30N 30°11' W 093°19'0 0.0
2017-Sep-17 15:00N 30°11' W 093°19'0 0.0
2017-Sep-17 14:27N 30°11' W 093°19'0 0.0
2017-Sep-17 14:00N 30°11' W 093°19'0 0.0
2017-Sep-17 13:30N 30°11' W 093°19'0 0.0
2017-Sep-17 13:00N 30°11' W 093°19'0 0.0
2017-Sep-17 12:30N 30°11' W 093°18'0 0.0
2017-Sep-17 12:00N 30°11' W 093°18'0 0.0
2017-Sep-17 11:30N 30°11' W 093°18'0 0.0
2017-Sep-17 11:00N 30°11' W 093°18'0 0.0
2017-Sep-17 10:30N 30°11' W 093°18'0 0.1
2017-Sep-17 10:01N 30°11' W 093°18'2 3.6
2017-Sep-17 09:31N 30°09' W 093°20'4 7.0
2017-Sep-17 09:00N 30°06' W 093°20'5 9.1
2017-Sep-17 08:31N 30°01' W 093°20'4 8.3
2017-Sep-17 08:00N 29°57' W 093°20'5 9.9
2017-Sep-17 07:31N 29°52' W 093°21'611.8
2017-Sep-17 07:00N 29°46' W 093°21'911.5
2017-Sep-17 06:13N 29°37' W 093°19'610.0
2017-Sep-17 05:37N 29°33' W 093°15'57112.3
2017-Sep-15 07:16N 27°38' W 082°38'413.5
2017-Sep-15 06:59N 27°41' W 082°35'712.7
2017-Sep-15 06:28N 27°47' W 082°31'512.0
2017-Sep-15 06:01N 27°50' W 082°27'510.3
2017-Sep-15 05:30N 27°55' W 082°27'1 2.1
2017-Sep-15 05:01N 27°56' W 082°27'0 0.9
2017-Sep-15 04:29N 27°56' W 082°27'0 0.0
2017-Sep-15 03:53N 27°56' W 082°27'0 0.0
2017-Sep-15 03:08N 27°56' W 082°27'0 0.0
2017-Sep-15 02:56N 27°56' W 082°27'0 0.0
2017-Sep-15 02:29N 27°56' W 082°27'0 0.0
2017-Sep-15 01:56N 27°56' W 082°27'0 0.0
2017-Sep-15 01:29N 27°56' W 082°27'0 0.0
2017-Sep-15 00:59N 27°56' W 082°27'0 0.0
2017-Sep-15 00:29N 27°56' W 082°27'0 0.0
2017-Sep-14 23:56N 27°56' W 082°27'0 0.0
2017-Sep-14 23:29N 27°56' W 082°27'0 0.0
2017-Sep-14 22:56N 27°56' W 082°27'0 0.0
2017-Sep-14 22:29N 27°56' W 082°27'0 0.0
2017-Sep-14 21:59N 27°56' W 082°27'0 0.0
2017-Sep-14 21:23N 27°56' W 082°27'0 0.0
2017-Sep-14 20:59N 27°56' W 082°27'0 0.0
2017-Sep-14 20:29N 27°56' W 082°27'0 0.0
2017-Sep-14 19:59N 27°56' W 082°27'0 0.0
2017-Sep-14 19:29N 27°56' W 082°27'0 0.0
2017-Sep-14 18:56N 27°56' W 082°27'0 0.0
2017-Sep-14 18:26N 27°56' W 082°27'0 0.0
2017-Sep-14 17:59N 27°56' W 082°27'0 0.0
2017-Sep-14 17:23N 27°56' W 082°27'0 0.0
2017-Sep-14 16:59N 27°56' W 082°27'0 0.0
2017-Sep-14 16:29N 27°56' W 082°27'0 0.0
2017-Sep-14 15:59N 27°56' W 082°27'0 0.0
2017-Sep-14 15:26N 27°56' W 082°27'0 0.0
2017-Sep-14 14:59N 27°56' W 082°27'0 0.0
2017-Sep-14 14:29N 27°56' W 082°27'0 0.0
2017-Sep-14 13:59N 27°56' W 082°27'0 0.0
2017-Sep-14 13:29N 27°56' W 082°27'0 0.0
2017-Sep-14 12:59N 27°56' W 082°27'0 0.0
2017-Sep-14 12:29N 27°56' W 082°27'0 0.0
2017-Sep-14 11:59N 27°56' W 082°27'0 0.0
2017-Sep-14 11:29N 27°56' W 082°27'0 0.0
2017-Sep-14 10:59N 27°56' W 082°27'0 0.0
2017-Sep-14 10:29N 27°56' W 082°27'0 0.0
2017-Sep-14 09:59N 27°56' W 082°27'0 0.0
2017-Sep-14 09:30N 27°56' W 082°27'0 0.0
2017-Sep-14 09:00N 27°56' W 082°27'0 0.0
2017-Sep-14 08:30N 27°56' W 082°27'0 0.0
2017-Sep-14 08:00N 27°56' W 082°27'0 0.0
2017-Sep-14 07:30N 27°56' W 082°27'0 0.0
2017-Sep-14 07:00N 27°56' W 082°27'0 0.0
2017-Sep-14 06:30N 27°56' W 082°27'0 0.0
2017-Sep-14 06:00N 27°56' W 082°27'0 0.0
2017-Sep-14 05:30N 27°56' W 082°27'0 0.0
2017-Sep-14 05:00N 27°56' W 082°27'0 0.0
2017-Sep-14 04:30N 27°56' W 082°27'0 0.0
2017-Sep-14 04:00N 27°56' W 082°27'0 0.0
2017-Sep-14 03:30N 27°56' W 082°27'0 0.0
2017-Sep-14 03:00N 27°56' W 082°27'0 0.0
2017-Sep-14 02:30N 27°56' W 082°27'0 0.0
2017-Sep-14 02:00N 27°56' W 082°27'0 0.0
2017-Sep-14 01:30N 27°56' W 082°27'0 0.0
2017-Sep-14 01:00N 27°56' W 082°27'0 0.0
2017-Sep-14 00:30N 27°56' W 082°27'0 0.0
2017-Sep-14 00:00N 27°56' W 082°27'0 0.0
2017-Sep-13 23:30N 27°56' W 082°27'  

Dump ship's entire track history